createdAt,value
2023-06-01T00:00:09.325Z,1.80
2023-06-01T00:01:02.778Z,2.00
2023-06-01T00:02:02.538Z,2.00
2023-06-01T00:03:09.615Z,2.00
2023-06-01T00:04:16.441Z,1.90
2023-06-01T00:06:18.540Z,2.00
2023-06-01T00:07:14.759Z,2.00
2023-06-01T00:08:25.223Z,2.00
2023-06-01T00:09:21.297Z,2.10
2023-06-01T00:10:21.271Z,2.10
2023-06-01T00:11:21.251Z,2.00
2023-06-01T00:12:22.206Z,2.10
2023-06-01T00:13:22.186Z,2.10
2023-06-01T00:14:21.228Z,2.00
2023-06-01T00:15:20.892Z,2.10
2023-06-01T00:16:21.242Z,2.10
2023-06-01T00:17:34.588Z,2.00
2023-06-01T00:18:14.632Z,2.00
2023-06-01T00:19:14.633Z,2.00
2023-06-01T00:20:14.620Z,2.10
2023-06-01T00:21:14.614Z,2.00
2023-06-01T00:22:49.781Z,1.90
2023-06-01T00:23:14.582Z,2.20
2023-06-01T00:24:21.126Z,2.00
2023-06-01T00:25:21.804Z,2.20
2023-06-01T00:26:21.090Z,2.00
2023-06-01T00:28:31.657Z,2.30
2023-06-01T00:29:32.657Z,2.10
2023-06-01T00:30:32.643Z,1.90
2023-06-01T00:31:32.767Z,2.20
2023-06-01T00:32:39.229Z,2.20
2023-06-01T00:33:39.841Z,2.10
2023-06-01T00:34:39.143Z,2.30
2023-06-01T00:35:40.264Z,2.20
2023-06-01T00:36:54.606Z,2.30
2023-06-01T00:37:32.563Z,2.10
2023-06-01T00:38:32.547Z,2.30
2023-06-01T00:39:32.535Z,2.40
2023-06-01T00:40:39.849Z,2.10
2023-06-01T00:41:39.046Z,2.40
2023-06-01T00:42:39.701Z,2.40
2023-06-01T00:43:39.039Z,2.10
2023-06-01T00:44:39.732Z,2.20
2023-06-01T00:45:58.106Z,2.40
2023-06-01T00:47:50.514Z,2.10
2023-06-01T00:48:44.056Z,2.00
2023-06-01T00:49:51.620Z,2.60
2023-06-01T00:52:11.813Z,2.20
2023-06-01T00:53:02.776Z,2.40
2023-06-01T00:54:10.267Z,2.30
2023-06-01T00:55:15.562Z,2.30
2023-06-01T00:56:09.941Z,2.30
2023-06-01T00:57:10.272Z,2.40
2023-06-01T00:58:09.945Z,2.10
2023-06-01T00:59:20.389Z,2.10
2023-06-01T01:00:10.369Z,2.00
2023-06-01T01:01:09.254Z,2.40
2023-06-01T01:02:09.221Z,2.20
2023-06-01T01:03:10.228Z,2.30
2023-06-01T01:05:30.173Z,2.20
2023-06-01T01:06:20.444Z,2.30
2023-06-01T01:07:27.660Z,2.30
2023-06-01T01:08:26.976Z,2.40
2023-06-01T01:09:27.864Z,2.30
2023-06-01T01:10:26.957Z,2.30
2023-06-01T01:11:26.931Z,2.10
2023-06-01T01:12:27.615Z,2.20
2023-06-01T01:14:38.480Z,2.10
2023-06-01T01:16:52.187Z,2.30
2023-06-01T01:17:44.333Z,2.30
2023-06-01T01:19:09.367Z,2.40
2023-06-01T01:21:04.825Z,2.30
2023-06-01T01:21:55.604Z,2.30
2023-06-01T01:23:05.033Z,2.30
2023-06-01T01:23:55.540Z,2.20
2023-06-01T01:24:55.527Z,2.20
2023-06-01T01:26:04.110Z,2.40
2023-06-01T01:27:04.632Z,2.20
2023-06-01T01:29:16.883Z,2.10
2023-06-01T01:30:13.286Z,2.30
2023-06-01T01:31:20.619Z,2.30
2023-06-01T01:32:20.694Z,2.60
2023-06-01T01:33:19.442Z,2.20
2023-06-01T01:34:19.792Z,2.30
2023-06-01T01:35:19.433Z,2.40
2023-06-01T01:36:21.773Z,2.20
2023-06-01T01:38:29.979Z,2.30
2023-06-01T01:39:37.507Z,2.40
2023-06-01T01:40:39.558Z,2.40
2023-06-01T01:41:51.972Z,2.40
2023-06-01T01:42:37.594Z,2.40
2023-06-01T01:43:37.463Z,2.20
2023-06-01T01:44:37.512Z,2.20
2023-06-01T01:45:38.143Z,2.20
2023-06-01T01:47:53.338Z,2.20
2023-06-01T01:48:49.034Z,2.20
2023-06-01T01:49:55.524Z,2.30
2023-06-01T01:51:17.775Z,2.30
2023-06-01T01:51:48.962Z,2.50
2023-06-01T01:52:48.959Z,2.20
2023-06-01T01:53:48.940Z,2.40
2023-06-01T01:54:57.578Z,2.40
2023-06-01T01:55:56.159Z,2.30
2023-06-01T01:56:55.472Z,2.20
2023-06-01T01:57:55.454Z,2.40
2023-06-01T01:58:55.448Z,2.00
2023-06-01T02:01:00.476Z,2.20
2023-06-01T02:02:01.174Z,2.30
2023-06-01T02:03:01.330Z,2.40
2023-06-01T02:04:27.836Z,2.20
2023-06-01T02:05:08.370Z,2.10
2023-06-01T02:06:07.683Z,2.50
2023-06-01T02:07:07.645Z,2.30
2023-06-01T02:08:08.593Z,2.30
2023-06-01T02:09:08.794Z,2.40
2023-06-01T02:10:07.625Z,2.30
2023-06-01T02:11:07.636Z,2.80
2023-06-01T02:12:07.252Z,2.00
2023-06-01T02:13:07.570Z,2.20
2023-06-01T02:14:19.657Z,2.10
2023-06-01T02:15:01.034Z,2.20
2023-06-01T02:16:01.038Z,2.20
2023-06-01T02:17:01.001Z,2.50
2023-06-01T02:18:01.044Z,2.20
2023-06-01T02:20:26.462Z,2.60
2023-06-01T02:21:19.155Z,2.30
2023-06-01T02:22:27.920Z,2.50
2023-06-01T02:23:31.355Z,2.30
2023-06-01T02:24:25.638Z,2.50
2023-06-01T02:25:25.646Z,2.40
2023-06-01T02:26:25.581Z,2.80
2023-06-01T02:27:32.742Z,2.40
2023-06-01T02:28:56.707Z,2.20
2023-06-01T02:29:25.594Z,2.40
2023-06-01T02:30:25.574Z,2.40
2023-06-01T02:31:26.251Z,2.20
2023-06-01T02:32:33.948Z,2.50
2023-06-01T02:34:42.730Z,2.30
2023-06-01T02:35:31.302Z,2.30
2023-06-01T02:36:31.304Z,2.30
2023-06-01T02:37:43.976Z,2.40
2023-06-01T02:38:31.275Z,2.60
2023-06-01T02:39:38.433Z,2.30
2023-06-01T02:40:38.500Z,2.30
2023-06-01T02:41:42.715Z,2.30
2023-06-01T02:42:39.508Z,2.10
2023-06-01T02:43:31.228Z,2.10
2023-06-01T02:44:31.222Z,2.60
2023-06-01T02:45:31.144Z,2.10
2023-06-01T02:51:06.561Z,2.40
2023-06-01T02:55:35.858Z,2.40
2023-06-01T02:56:45.149Z,2.50
2023-06-01T02:57:44.343Z,2.20
2023-06-01T02:58:36.824Z,2.40
2023-06-01T03:00:15.858Z,2.10
2023-06-01T03:00:36.790Z,2.20
2023-06-01T03:01:43.378Z,2.30
2023-06-01T03:02:45.074Z,2.40
2023-06-01T03:03:43.340Z,2.50
2023-06-01T03:04:44.578Z,2.30
2023-06-01T03:05:43.275Z,2.40
2023-06-01T03:06:43.998Z,2.10
2023-06-01T03:07:43.272Z,2.40
2023-06-01T03:08:43.925Z,2.20
2023-06-01T03:09:54.103Z,2.40
2023-06-01T03:10:43.880Z,2.20
2023-06-01T03:11:44.233Z,2.20
2023-06-01T03:12:43.223Z,2.40
2023-06-01T03:13:56.573Z,2.50
2023-06-01T03:14:36.660Z,2.40
2023-06-01T03:15:44.787Z,2.60
2023-06-01T03:16:43.163Z,2.30
2023-06-01T03:17:43.915Z,2.50
2023-06-01T03:18:51.839Z,2.30
2023-06-01T03:19:36.586Z,2.40
2023-06-01T03:20:36.586Z,2.30
2023-06-01T03:21:36.626Z,2.40
2023-06-01T03:24:58.341Z,2.50
2023-06-01T03:25:59.315Z,2.30
2023-06-01T03:26:59.321Z,2.40
2023-06-01T03:28:06.926Z,3.00
2023-06-01T03:29:05.860Z,2.30
2023-06-01T03:30:05.817Z,2.60
2023-06-01T03:31:05.838Z,2.40
2023-06-01T03:32:08.497Z,2.20
2023-06-01T03:33:32.012Z,2.40
2023-06-01T03:33:59.234Z,2.40
2023-06-01T03:34:59.223Z,2.50
2023-06-01T03:35:59.205Z,2.60
2023-06-01T03:37:30.306Z,2.40
2023-06-01T03:38:05.723Z,2.50
2023-06-01T03:38:59.185Z,2.50
2023-06-01T03:39:59.173Z,2.60
2023-06-01T03:41:05.701Z,2.40
2023-06-01T03:42:38.820Z,2.40
2023-06-01T03:42:59.154Z,2.30
2023-06-01T03:44:05.713Z,2.30
2023-06-01T03:45:05.638Z,2.50
2023-06-01T03:46:37.835Z,2.40
2023-06-01T03:47:06.476Z,2.40
2023-06-01T03:48:05.978Z,2.40
2023-06-01T03:49:06.237Z,2.50
2023-06-01T03:50:06.617Z,2.40
2023-06-01T03:51:14.926Z,2.30
2023-06-01T03:52:05.597Z,2.20
2023-06-01T03:53:06.241Z,2.40
2023-06-01T03:54:05.573Z,2.40
2023-06-01T03:55:05.556Z,2.20
2023-06-01T03:56:06.781Z,2.40
2023-06-01T03:57:05.527Z,2.50
2023-06-01T03:58:06.323Z,2.40
2023-06-01T03:59:05.520Z,2.20
2023-06-01T04:00:06.843Z,2.10
2023-06-01T04:02:25.272Z,2.50
2023-06-01T04:05:38.416Z,2.60
2023-06-01T04:06:46.001Z,2.40
2023-06-01T04:07:45.614Z,2.40
2023-06-01T04:08:45.944Z,2.50
2023-06-01T04:09:46.881Z,2.20
2023-06-01T04:10:45.893Z,2.40
2023-06-01T04:11:46.531Z,2.40
2023-06-01T04:12:45.895Z,2.30
2023-06-01T04:13:47.001Z,2.50
2023-06-01T04:15:03.375Z,2.60
2023-06-01T04:15:39.312Z,2.30
2023-06-01T04:16:46.488Z,2.40
2023-06-01T04:17:46.186Z,2.20
2023-06-01T04:18:46.528Z,2.10
2023-06-01T04:19:39.258Z,2.40
2023-06-01T04:20:39.243Z,2.30
2023-06-01T04:21:39.258Z,2.80
2023-06-01T04:22:39.236Z,2.20
2023-06-01T04:28:06.584Z,2.50
2023-06-01T04:29:04.528Z,2.50
2023-06-01T04:30:04.510Z,2.30
2023-06-01T04:31:04.509Z,2.60
2023-06-01T04:32:04.516Z,2.50
2023-06-01T04:33:14.070Z,2.40
2023-06-01T04:34:04.460Z,2.60
2023-06-01T04:35:04.449Z,2.70
2023-06-01T04:36:04.462Z,2.50
2023-06-01T04:37:18.074Z,2.40
2023-06-01T04:38:04.418Z,2.50
2023-06-01T04:39:04.420Z,2.70
2023-06-01T04:40:04.412Z,2.50
2023-06-01T04:41:04.390Z,2.20
2023-06-01T04:42:04.395Z,2.50
2023-06-01T04:43:04.372Z,2.50
2023-06-01T04:44:04.356Z,2.40
2023-06-01T04:45:04.356Z,2.40
2023-06-01T04:46:04.365Z,2.50
2023-06-01T04:47:04.338Z,2.50
2023-06-01T04:48:04.385Z,2.30
2023-06-01T04:49:04.304Z,2.20
2023-06-01T04:50:04.291Z,2.40
2023-06-01T04:51:04.436Z,2.50
2023-06-01T04:52:15.730Z,2.40
2023-06-01T04:53:04.256Z,2.40
2023-06-01T04:54:04.237Z,2.60
2023-06-01T04:55:04.307Z,2.80
2023-06-01T04:56:14.550Z,2.50
2023-06-01T04:57:04.219Z,2.60
2023-06-01T04:58:04.207Z,2.60
2023-06-01T04:59:04.186Z,2.40
2023-06-01T05:00:04.202Z,2.50
2023-06-01T05:01:25.192Z,2.50
2023-06-01T05:02:04.287Z,2.60
2023-06-01T05:03:04.329Z,2.70
2023-06-01T05:04:04.173Z,2.40
2023-06-01T05:05:10.530Z,2.50
2023-06-01T05:06:04.119Z,2.70
2023-06-01T05:07:04.103Z,2.50
2023-06-01T05:08:04.095Z,2.40
2023-06-01T05:09:04.084Z,2.60
2023-06-01T05:10:29.624Z,2.90
2023-06-01T05:11:04.290Z,3.00
2023-06-01T05:12:04.060Z,2.50
2023-06-01T05:13:04.042Z,2.70
2023-06-01T05:14:05.213Z,2.70
2023-06-01T05:16:15.518Z,2.30
2023-06-01T05:17:16.471Z,2.60
2023-06-01T05:18:16.492Z,2.80
2023-06-01T05:19:22.233Z,2.70
2023-06-01T05:20:16.459Z,2.90
2023-06-01T05:21:16.469Z,2.80
2023-06-01T05:22:16.418Z,2.60
2023-06-01T05:23:48.895Z,2.70
2023-06-01T05:24:16.390Z,2.50
2023-06-01T05:25:16.383Z,2.80
2023-06-01T05:26:16.404Z,3.00
2023-06-01T05:27:16.375Z,2.60
2023-06-01T05:28:21.983Z,3.10
2023-06-01T05:29:16.344Z,2.30
2023-06-01T05:30:16.335Z,2.50
2023-06-01T05:31:16.358Z,2.50
2023-06-01T05:32:16.315Z,2.60
2023-06-01T05:33:54.549Z,2.30
2023-06-01T05:34:16.282Z,2.60
2023-06-01T05:35:16.282Z,2.90
2023-06-01T05:36:16.270Z,2.50
2023-06-01T05:37:16.253Z,2.60
2023-06-01T05:38:16.264Z,2.40
2023-06-01T05:39:16.276Z,2.50
2023-06-01T05:40:16.223Z,2.30
2023-06-01T05:41:16.205Z,2.50
2023-06-01T05:43:27.981Z,2.90
2023-06-01T05:44:28.653Z,2.80
2023-06-01T05:45:28.627Z,2.70
2023-06-01T05:46:28.696Z,2.60
2023-06-01T05:47:43.078Z,2.30
2023-06-01T05:48:28.594Z,2.90
2023-06-01T05:49:28.571Z,2.80
2023-06-01T05:50:28.554Z,2.60
2023-06-01T05:51:28.576Z,2.50
2023-06-01T05:52:57.355Z,2.80
2023-06-01T05:53:28.529Z,2.30
2023-06-01T05:54:28.533Z,2.50
2023-06-01T05:55:28.515Z,2.80
2023-06-01T05:56:39.385Z,2.90
2023-06-01T05:57:28.539Z,2.70
2023-06-01T05:58:28.479Z,3.00
2023-06-01T05:59:28.467Z,2.60
2023-06-01T06:00:28.477Z,2.60
2023-06-01T06:02:04.030Z,2.70
2023-06-01T06:02:28.604Z,2.50
2023-06-01T06:03:28.535Z,2.60
2023-06-01T06:04:28.502Z,2.70
2023-06-01T06:06:47.570Z,2.50
2023-06-01T06:07:40.808Z,3.00
2023-06-01T06:08:40.826Z,2.80
2023-06-01T06:09:40.813Z,2.90
2023-06-01T06:11:52.369Z,2.90
2023-06-01T06:12:53.382Z,3.30
2023-06-01T06:13:53.358Z,2.50
2023-06-01T06:15:24.518Z,3.00
2023-06-01T06:15:59.996Z,2.70
2023-06-01T06:19:16.650Z,2.70
2023-06-01T06:21:29.434Z,2.80
2023-06-01T06:22:31.468Z,2.80
2023-06-01T06:23:31.301Z,2.60
2023-06-01T06:25:06.052Z,3.00
2023-06-01T06:25:30.369Z,2.60
2023-06-01T06:26:30.401Z,2.60
2023-06-01T06:27:30.329Z,2.80
2023-06-01T06:29:03.314Z,2.80
2023-06-01T06:29:41.346Z,2.40
2023-06-01T06:30:30.284Z,2.50
2023-06-01T06:31:30.284Z,2.90
2023-06-01T06:32:30.323Z,2.40
2023-06-01T06:34:47.930Z,2.50
2023-06-01T06:35:43.713Z,2.90
2023-06-01T06:36:43.718Z,2.50
2023-06-01T06:37:43.691Z,2.40
2023-06-01T06:38:43.712Z,2.30
2023-06-01T06:39:43.877Z,2.50
2023-06-01T06:40:44.722Z,2.50
2023-06-01T06:41:43.678Z,2.80
2023-06-01T06:42:43.675Z,2.50
2023-06-01T06:43:43.706Z,2.50
2023-06-01T06:44:43.623Z,2.70
2023-06-01T06:45:43.634Z,2.50
2023-06-01T06:46:43.684Z,2.40
2023-06-01T06:47:43.631Z,2.70
2023-06-01T06:48:44.602Z,2.80
2023-06-01T06:49:43.677Z,2.70
2023-06-01T06:50:43.703Z,2.50
2023-06-01T06:52:12.621Z,2.30
2023-06-01T06:52:43.550Z,2.40
2023-06-01T06:53:43.577Z,2.50
2023-06-01T06:54:43.556Z,2.50
2023-06-01T06:55:43.648Z,2.50
2023-06-01T06:58:10.296Z,2.80
2023-06-01T06:59:11.294Z,2.70
2023-06-01T07:00:11.242Z,2.40
2023-06-01T07:01:17.615Z,2.60
2023-06-01T07:02:11.819Z,2.70
2023-06-01T07:03:12.951Z,2.50
2023-06-01T07:04:11.259Z,2.90
2023-06-01T07:05:13.271Z,2.30
2023-06-01T07:06:21.692Z,2.20
2023-06-01T07:07:18.196Z,2.50
2023-06-01T07:08:11.147Z,2.50
2023-06-01T07:09:11.226Z,2.50
2023-06-01T07:10:18.707Z,2.60
2023-06-01T07:13:38.724Z,2.60
2023-06-01T07:14:34.680Z,3.00
2023-06-01T07:15:34.691Z,2.60
2023-06-01T07:16:34.706Z,2.40
2023-06-01T07:17:34.680Z,2.00
2023-06-01T07:18:34.633Z,2.40
2023-06-01T07:19:34.746Z,2.20
2023-06-01T07:22:57.543Z,2.50
2023-06-01T07:23:58.513Z,2.00
2023-06-01T07:24:58.812Z,2.40
2023-06-01T07:25:58.516Z,2.50
2023-06-01T07:26:58.520Z,2.30
2023-06-01T07:27:58.515Z,1.90
2023-06-01T07:28:59.218Z,2.00
2023-06-01T07:31:21.377Z,2.30
2023-06-01T07:32:10.657Z,2.60
2023-06-01T07:33:10.669Z,2.10
2023-06-01T07:34:36.650Z,2.10
2023-06-01T07:35:10.622Z,2.20
2023-06-01T07:36:10.562Z,2.20
2023-06-01T07:37:17.600Z,2.00
2023-06-01T07:38:10.579Z,2.00
2023-06-01T07:40:26.954Z,2.00
2023-06-01T07:41:23.058Z,2.10
2023-06-01T07:42:23.040Z,2.20
2023-06-01T07:43:23.045Z,2.20
2023-06-01T07:44:23.017Z,2.10
2023-06-01T07:45:23.011Z,1.80
2023-06-01T07:46:23.045Z,2.00
2023-06-01T07:47:23.006Z,2.10
2023-06-01T07:49:41.611Z,2.30
2023-06-01T07:50:36.701Z,2.10
2023-06-01T07:51:38.696Z,1.90
2023-06-01T07:52:36.690Z,2.20
2023-06-01T07:53:36.598Z,2.00
2023-06-01T07:54:36.599Z,2.10
2023-06-01T07:55:36.574Z,2.00
2023-06-01T07:56:36.609Z,1.90
2023-06-01T07:58:56.965Z,1.80
2023-06-01T07:59:49.113Z,2.10
2023-06-01T08:00:49.100Z,2.00
2023-06-01T08:03:08.329Z,1.90
2023-06-01T08:04:01.708Z,1.80
2023-06-01T08:05:01.737Z,1.90
2023-06-01T08:06:02.075Z,1.80
2023-06-01T08:07:01.682Z,2.00
2023-06-01T08:08:01.687Z,1.90
2023-06-01T08:09:01.642Z,2.00
2023-06-01T08:10:01.696Z,2.00
2023-06-01T08:11:01.686Z,1.90
2023-06-01T08:12:25.768Z,2.00
2023-06-01T08:13:01.642Z,1.90
2023-06-01T08:14:01.620Z,1.80
2023-06-01T08:15:01.592Z,1.80
2023-06-01T08:17:20.834Z,1.90
2023-06-01T08:18:14.000Z,1.90
2023-06-01T08:19:13.933Z,1.80
2023-06-01T08:20:13.933Z,1.80
2023-06-01T08:21:21.777Z,1.80
2023-06-01T08:22:13.994Z,1.70
2023-06-01T08:23:13.904Z,1.90
2023-06-01T08:24:13.915Z,2.00
2023-06-01T08:25:14.277Z,2.00
2023-06-01T08:26:13.850Z,1.80
2023-06-01T08:27:13.843Z,2.20
2023-06-01T08:28:13.848Z,1.70
2023-06-01T08:29:13.820Z,1.80
2023-06-01T08:30:41.080Z,1.90
2023-06-01T08:31:13.818Z,1.80
2023-06-01T08:32:13.801Z,1.80
2023-06-01T08:36:55.989Z,1.90
2023-06-01T08:39:15.674Z,2.00
2023-06-01T08:41:26.360Z,2.30
2023-06-01T08:42:56.380Z,2.00
2023-06-01T08:44:56.523Z,2.30
2023-06-01T08:45:33.021Z,2.10
2023-06-01T08:46:33.068Z,1.90
2023-06-01T08:47:33.066Z,2.40
2023-06-01T08:48:32.998Z,2.10
2023-06-01T08:49:32.968Z,2.30
2023-06-01T08:50:32.988Z,2.00
2023-06-01T08:51:32.938Z,2.00
2023-06-01T08:52:33.006Z,2.20
2023-06-01T08:53:47.018Z,2.10
2023-06-01T08:54:32.991Z,2.30
2023-06-01T08:55:34.585Z,2.00
2023-06-01T08:56:33.921Z,2.40
2023-06-01T08:57:40.763Z,2.40
2023-06-01T08:58:32.959Z,2.30
2023-06-01T08:59:32.858Z,2.20
2023-06-01T09:00:32.881Z,2.30
2023-06-01T09:01:32.975Z,2.40
2023-06-01T09:02:34.206Z,2.50
2023-06-01T09:03:32.931Z,2.60
2023-06-01T09:04:32.815Z,2.60
2023-06-01T09:05:32.796Z,2.40
2023-06-01T09:07:44.841Z,2.50
2023-06-01T09:08:45.863Z,2.60
2023-06-01T09:09:45.870Z,2.70
2023-06-01T09:10:45.804Z,2.50
2023-06-01T09:11:45.792Z,2.50
2023-06-01T09:12:45.772Z,2.70
2023-06-01T09:13:45.778Z,2.80
2023-06-01T09:14:45.754Z,2.60
2023-06-01T09:15:45.752Z,2.90
2023-06-01T09:16:45.792Z,2.90
2023-06-01T09:17:45.774Z,2.80
2023-06-01T09:18:45.733Z,2.60
2023-06-01T09:19:45.706Z,2.90
2023-06-01T09:20:45.715Z,3.30
2023-06-01T09:21:56.482Z,3.60
2023-06-01T09:22:45.696Z,3.20
2023-06-01T09:23:45.662Z,3.40
2023-06-01T09:24:45.658Z,3.10
2023-06-01T09:25:48.946Z,3.30
2023-06-01T09:26:45.633Z,3.30
2023-06-01T09:27:45.625Z,3.50
2023-06-01T09:28:45.626Z,3.70
2023-06-01T09:29:45.613Z,3.60
2023-06-01T09:31:57.933Z,3.90
2023-06-01T09:32:59.959Z,3.50
2023-06-01T09:33:58.882Z,4.90
2023-06-01T09:35:38.325Z,4.30
2023-06-01T09:35:58.913Z,4.90
2023-06-01T09:36:58.957Z,4.30
2023-06-01T09:37:58.846Z,3.90
2023-06-01T09:39:01.300Z,4.10
2023-06-01T09:40:04.606Z,4.40
2023-06-01T09:40:58.970Z,4.10
2023-06-01T09:41:58.804Z,4.30
2023-06-01T09:42:58.784Z,4.20
2023-06-01T09:44:00.240Z,4.20
2023-06-01T09:46:19.438Z,4.50
2023-06-01T09:47:11.469Z,4.40
2023-06-01T09:48:11.431Z,4.20
2023-06-01T09:50:23.053Z,4.30
2023-06-01T09:51:24.195Z,4.80
2023-06-01T09:52:23.908Z,4.60
2023-06-01T09:53:53.163Z,4.30
2023-06-01T09:54:23.884Z,4.70
2023-06-01T09:55:23.877Z,4.70
2023-06-01T09:56:23.874Z,4.90
2023-06-01T09:57:23.882Z,5.50
2023-06-01T09:59:52.180Z,3.70
2023-06-01T10:00:36.321Z,4.60
2023-06-01T10:01:36.303Z,4.50
2023-06-01T10:03:05.634Z,5.10
2023-06-01T10:03:36.357Z,4.80
2023-06-01T10:04:36.273Z,5.00
2023-06-01T10:05:36.277Z,4.80
2023-06-01T10:06:36.253Z,4.80
2023-06-01T10:10:02.157Z,4.50
2023-06-01T10:11:02.531Z,4.60
2023-06-01T10:12:19.901Z,4.40
2023-06-01T10:13:01.771Z,4.70
2023-06-01T10:14:01.767Z,4.40
2023-06-01T10:15:02.724Z,4.90
2023-06-01T10:16:02.126Z,4.80
2023-06-01T10:18:51.383Z,4.60
2023-06-01T10:19:14.862Z,5.10
2023-06-01T10:20:14.859Z,4.90
2023-06-01T10:21:20.026Z,5.20
2023-06-01T10:22:14.860Z,5.20
2023-06-01T10:24:14.818Z,4.30
2023-06-01T10:25:14.822Z,4.30
2023-06-01T10:26:15.476Z,4.50
2023-06-01T10:27:15.817Z,4.40
2023-06-01T10:28:14.891Z,5.30
2023-06-01T10:29:14.771Z,4.70
2023-06-01T10:32:38.635Z,5.80
2023-06-01T10:33:38.671Z,5.10
2023-06-01T10:34:38.697Z,5.10
2023-06-01T10:36:49.745Z,5.00
2023-06-01T10:37:50.726Z,5.20
2023-06-01T10:38:50.723Z,5.50
2023-06-01T10:39:58.776Z,5.10
2023-06-01T10:40:59.745Z,4.80
2023-06-01T10:41:50.707Z,4.80
2023-06-01T10:42:50.796Z,4.80
2023-06-01T10:43:50.670Z,5.70
2023-06-01T10:44:50.680Z,5.50
2023-06-01T10:47:23.318Z,5.00
2023-06-01T10:48:03.615Z,6.70
2023-06-01T10:49:38.372Z,4.70
2023-06-01T10:50:03.276Z,4.80
2023-06-01T10:51:05.372Z,4.50
2023-06-01T10:52:03.262Z,4.10
2023-06-01T10:53:03.239Z,4.50
2023-06-01T10:54:27.506Z,4.40
2023-06-01T10:56:56.438Z,4.20
2023-06-01T10:57:57.519Z,4.30
2023-06-01T10:59:06.138Z,3.60
2023-06-01T11:01:15.946Z,4.30
2023-06-01T11:02:45.659Z,4.20
2023-06-01T11:04:30.318Z,3.90
2023-06-01T11:05:22.571Z,3.80
2023-06-01T11:06:22.603Z,4.20
2023-06-01T11:08:47.852Z,3.70
2023-06-01T11:09:34.886Z,4.00
2023-06-01T11:10:34.893Z,3.50
2023-06-01T11:11:34.869Z,4.30
2023-06-01T11:12:39.168Z,4.20
2023-06-01T11:13:34.846Z,4.20
2023-06-01T11:14:35.195Z,4.30
2023-06-01T11:15:34.905Z,4.10
2023-06-01T11:16:34.855Z,4.30
2023-06-01T11:18:06.758Z,4.20
2023-06-01T11:18:34.797Z,4.10
2023-06-01T11:19:34.792Z,4.00
2023-06-01T11:20:34.772Z,4.00
2023-06-01T11:21:57.783Z,4.10
2023-06-01T11:22:34.798Z,3.60
2023-06-01T11:23:34.770Z,3.70
2023-06-01T11:24:34.726Z,4.20
2023-06-01T11:25:34.736Z,3.80
2023-06-01T11:26:34.708Z,3.80
2023-06-01T11:27:34.730Z,4.10
2023-06-01T11:28:34.692Z,3.60
2023-06-01T11:29:34.686Z,3.60
2023-06-01T11:30:40.028Z,3.60
2023-06-01T11:31:48.771Z,3.40
2023-06-01T11:32:34.684Z,3.40
2023-06-01T11:33:34.967Z,3.70
2023-06-01T11:34:34.640Z,3.60
2023-06-01T11:35:45.976Z,3.40
2023-06-01T11:36:34.609Z,3.90
2023-06-01T11:37:34.608Z,3.60
2023-06-01T11:38:34.608Z,3.80
2023-06-01T11:39:34.588Z,3.50
2023-06-01T11:40:45.252Z,3.10
2023-06-01T11:41:34.588Z,3.70
2023-06-01T11:42:34.545Z,3.60
2023-06-01T11:43:34.553Z,3.50
2023-06-01T11:44:34.534Z,3.80
2023-06-01T11:45:34.541Z,3.70
2023-06-01T11:46:34.545Z,3.60
2023-06-01T11:47:34.570Z,3.50
2023-06-01T11:48:34.506Z,3.30
2023-06-01T11:50:46.178Z,3.40
2023-06-01T11:51:47.194Z,3.50
2023-06-01T11:52:47.140Z,3.20
2023-06-01T11:53:47.148Z,3.60
2023-06-01T11:54:47.143Z,4.10
2023-06-01T11:55:47.110Z,3.70
2023-06-01T11:56:47.118Z,3.80
2023-06-01T11:58:12.286Z,3.50
2023-06-01T11:59:02.276Z,3.70
2023-06-01T12:00:01.720Z,3.40
2023-06-01T12:00:47.095Z,3.30
2023-06-01T12:01:47.150Z,4.00
2023-06-01T12:02:47.259Z,3.60
2023-06-01T12:05:05.205Z,3.50
2023-06-01T12:05:59.135Z,3.80
2023-06-01T12:06:59.123Z,3.50
2023-06-01T12:08:34.254Z,3.00
2023-06-01T12:08:59.175Z,3.40
2023-06-01T12:09:59.102Z,3.40
2023-06-01T12:10:59.249Z,3.40
2023-06-01T12:11:59.089Z,3.50
2023-06-01T12:15:22.444Z,3.20
2023-06-01T12:17:37.526Z,3.40
2023-06-01T12:19:00.634Z,3.60
2023-06-01T12:19:36.038Z,3.30
2023-06-01T12:20:36.028Z,3.40
2023-06-01T12:21:36.047Z,3.30
2023-06-01T12:22:36.013Z,3.30
2023-06-01T12:23:36.110Z,3.50
2023-06-01T12:24:36.092Z,3.40
2023-06-01T12:25:36.001Z,3.40
2023-06-01T12:26:36.033Z,2.90
2023-06-01T12:29:58.358Z,3.20
2023-06-01T12:30:59.483Z,3.30
2023-06-01T12:33:53.298Z,3.20
2023-06-01T12:34:54.376Z,3.40
2023-06-01T12:35:55.157Z,3.30
2023-06-01T12:37:29.720Z,3.60
2023-06-01T12:37:55.298Z,3.70
2023-06-01T12:38:54.714Z,3.80
2023-06-01T12:39:55.462Z,3.70
2023-06-01T12:40:54.314Z,3.30
2023-06-01T12:41:54.260Z,3.50
2023-06-01T12:42:54.242Z,3.80
2023-06-01T12:43:54.179Z,4.00
2023-06-01T12:44:54.153Z,3.80
2023-06-01T12:45:57.501Z,4.10
2023-06-01T12:46:54.239Z,3.80
2023-06-01T12:47:54.159Z,4.30
2023-06-01T12:48:54.146Z,4.60
2023-06-01T12:49:54.108Z,4.40
2023-06-01T12:50:54.210Z,4.90
2023-06-01T12:51:54.123Z,5.00
2023-06-01T12:52:54.105Z,5.50
2023-06-01T12:53:54.104Z,5.30
2023-06-01T12:55:01.169Z,5.10
2023-06-01T12:56:29.575Z,5.30
2023-06-01T12:56:54.030Z,5.10
2023-06-01T12:57:54.161Z,4.90
2023-06-01T12:58:54.006Z,5.00
2023-06-01T13:01:33.741Z,5.40
2023-06-01T13:02:08.672Z,5.70
2023-06-01T13:03:08.675Z,5.70
2023-06-01T13:04:08.745Z,5.90
2023-06-01T13:05:37.211Z,6.00
2023-06-01T13:06:08.566Z,6.00
2023-06-01T13:07:08.542Z,6.70
2023-06-01T13:08:08.541Z,6.40
2023-06-01T13:09:40.204Z,6.30
2023-06-01T13:10:08.516Z,6.70
2023-06-01T13:12:08.495Z,7.10
2023-06-01T13:13:09.503Z,7.00
2023-06-01T13:14:34.770Z,6.50
2023-06-01T13:15:08.464Z,7.70
2023-06-01T13:16:08.512Z,7.90
2023-06-01T13:17:08.440Z,7.50
2023-06-01T13:18:37.202Z,8.00
2023-06-01T13:19:08.437Z,8.20
2023-06-01T13:20:08.417Z,7.70
2023-06-01T13:21:08.403Z,7.40
2023-06-01T13:22:08.512Z,7.60
2023-06-01T13:24:48.882Z,7.50
2023-06-01T13:25:20.814Z,7.80
2023-06-01T13:26:20.826Z,7.30
2023-06-01T13:27:20.807Z,7.10
2023-06-01T13:28:28.560Z,7.10
2023-06-01T13:29:20.780Z,8.10
2023-06-01T13:30:20.769Z,8.40
2023-06-01T13:31:22.114Z,8.20
2023-06-01T13:32:20.826Z,7.60
2023-06-01T13:33:21.081Z,8.10
2023-06-01T13:34:20.737Z,8.20
2023-06-01T13:35:20.725Z,8.50
2023-06-01T13:36:20.703Z,8.30
2023-06-01T13:37:44.741Z,8.50
2023-06-01T13:38:20.721Z,8.00
2023-06-01T13:39:20.678Z,8.00
2023-06-01T13:40:20.660Z,7.90
2023-06-01T13:41:20.661Z,8.10
2023-06-01T13:42:21.525Z,7.00
2023-06-01T13:43:20.735Z,7.60
2023-06-01T13:44:20.659Z,7.10
2023-06-01T13:45:20.609Z,8.20
2023-06-01T13:46:20.646Z,7.80
2023-06-01T13:47:27.764Z,7.80
2023-06-01T13:48:21.018Z,8.10
2023-06-01T13:49:20.564Z,7.80
2023-06-01T13:50:20.611Z,7.30
2023-06-01T13:52:32.659Z,6.80
2023-06-01T13:53:34.385Z,6.90
2023-06-01T13:54:33.656Z,6.70
2023-06-01T13:55:33.617Z,7.00
2023-06-01T13:56:39.572Z,6.60
2023-06-01T13:57:33.593Z,6.10
2023-06-01T13:58:33.603Z,6.20
2023-06-01T13:59:34.205Z,6.20
2023-06-01T14:00:33.592Z,6.10
2023-06-01T14:02:03.914Z,5.80
2023-06-01T14:02:33.651Z,6.10
2023-06-01T14:03:33.639Z,5.90
2023-06-01T14:04:33.527Z,5.90
2023-06-01T14:06:53.591Z,5.60
2023-06-01T14:07:45.503Z,5.40
2023-06-01T14:08:45.514Z,5.80
2023-06-01T14:09:45.485Z,5.40
2023-06-01T14:10:45.489Z,5.30
2023-06-01T14:11:45.464Z,5.30
2023-06-01T14:12:45.456Z,5.50
2023-06-01T14:13:45.456Z,4.90
2023-06-01T14:14:55.675Z,5.10
2023-06-01T14:15:45.472Z,4.80
2023-06-01T14:16:46.883Z,4.80
2023-06-01T14:17:45.416Z,4.80
2023-06-01T14:18:45.406Z,5.20
2023-06-01T14:20:15.383Z,4.50
2023-06-01T14:20:45.404Z,4.60
2023-06-01T14:21:45.498Z,4.40
2023-06-01T14:22:45.359Z,4.20
2023-06-01T14:23:45.359Z,4.00
2023-06-01T14:24:45.414Z,4.40
2023-06-01T14:25:45.337Z,4.40
2023-06-01T14:26:45.319Z,3.80
2023-06-01T14:27:45.313Z,3.40
2023-06-01T14:28:51.841Z,4.00
2023-06-01T14:29:56.265Z,3.80
2023-06-01T14:30:45.292Z,3.90
2023-06-01T14:31:45.304Z,4.00
2023-06-01T14:32:45.307Z,3.90
2023-06-01T14:34:11.437Z,4.00
2023-06-01T14:34:45.264Z,5.10
2023-06-01T14:35:45.231Z,4.30
2023-06-01T14:36:47.453Z,4.30
2023-06-01T14:37:49.872Z,4.60
2023-06-01T14:38:45.206Z,4.50
2023-06-01T14:39:45.204Z,3.80
2023-06-01T14:40:45.180Z,3.70
2023-06-01T14:41:45.576Z,3.70
2023-06-01T14:42:47.624Z,3.70
2023-06-01T14:43:51.812Z,3.50
2023-06-01T14:44:54.599Z,3.60
2023-06-01T14:45:45.118Z,3.50
2023-06-01T14:46:45.176Z,4.00
2023-06-01T14:48:08.746Z,3.50
2023-06-01T14:48:45.099Z,3.50
2023-06-01T14:49:47.456Z,3.60
2023-06-01T14:50:45.073Z,3.10
2023-06-01T14:51:45.084Z,3.30
2023-06-01T14:52:58.548Z,3.30
2023-06-01T14:53:45.042Z,3.00
2023-06-01T14:54:45.023Z,3.10
2023-06-01T14:55:45.015Z,2.80
2023-06-01T14:56:45.332Z,3.20
2023-06-01T14:57:49.674Z,2.80
2023-06-01T14:58:44.988Z,3.20
2023-06-01T14:59:54.755Z,3.20
2023-06-01T15:00:44.997Z,3.00
2023-06-01T15:02:05.958Z,2.80